RYR85FA LIME-EGSS
Flight info
| Callsign | RYR85FA |
|---|---|
| Flight time | N/A |
| Altitude | 18000 |
| Route | DILEB Y170 ABREG/N0458F360 DCT LOKTA/N0457F370 DCT TEDGO/N0458F360 DCT LIRSU DCT DENUT L608 SUMUM Y6 TOSVA |
| Aircraft | B738/M-SDE2E3FGHIRWXY/LB1 |
Departure
| Time | 2026-04-27 06:53 |
|---|---|
| Airport | Il Caravaggio International Airport (LIME) |
Arrival
| Time | N/A |
|---|---|
| Airport | London Stansted Airport (EGSS) |
| Time | Latitude | Longitude | Altitude | Speed | Heading |
|---|---|---|---|---|---|
| 2026-04-27 06:38 | 45.66645 | 9.70121 | 788 ft | 0 kts | 194° |
| 2026-04-27 06:42 | 45.66649 | 9.70122 | 788 ft | 3 kts | 194° |
| 2026-04-27 06:42 | 45.66675 | 9.70130 | 788 ft | 4 kts | 185° |
| 2026-04-27 06:42 | 45.66702 | 9.70129 | 788 ft | 4 kts | 165° |
| 2026-04-27 06:43 | 45.66722 | 9.70113 | 789 ft | 4 kts | 112° |
| 2026-04-27 06:43 | 45.66724 | 9.70107 | 789 ft | 2 kts | 102° |
| 2026-04-27 06:47 | 45.66723 | 9.70117 | 789 ft | 3 kts | 99° |
| 2026-04-27 06:48 | 45.66712 | 9.70175 | 788 ft | 10 kts | 104° |
| 2026-04-27 06:48 | 45.66690 | 9.70295 | 787 ft | 14 kts | 105° |
| 2026-04-27 06:48 | 45.66664 | 9.70430 | 786 ft | 14 kts | 106° |
| 2026-04-27 06:48 | 45.66640 | 9.70559 | 785 ft | 13 kts | 105° |
| 2026-04-27 06:49 | 45.66617 | 9.70684 | 784 ft | 13 kts | 104° |
| 2026-04-27 06:49 | 45.66595 | 9.70805 | 784 ft | 12 kts | 104° |
| 2026-04-27 06:49 | 45.66573 | 9.70922 | 783 ft | 12 kts | 105° |
| 2026-04-27 06:49 | 45.66551 | 9.71037 | 782 ft | 12 kts | 105° |
| 2026-04-27 06:50 | 45.66524 | 9.71146 | 781 ft | 12 kts | 112° |
| 2026-04-27 06:50 | 45.66497 | 9.71253 | 781 ft | 11 kts | 108° |
| 2026-04-27 06:50 | 45.66476 | 9.71359 | 780 ft | 11 kts | 104° |
| 2026-04-27 06:50 | 45.66457 | 9.71464 | 779 ft | 11 kts | 104° |
| 2026-04-27 06:51 | 45.66440 | 9.71566 | 778 ft | 10 kts | 98° |
| 2026-04-27 06:51 | 45.66448 | 9.71667 | 777 ft | 10 kts | 79° |
| 2026-04-27 06:51 | 45.66467 | 9.71762 | 777 ft | 10 kts | 75° |
| 2026-04-27 06:51 | 45.66483 | 9.71849 | 776 ft | 9 kts | 75° |
| 2026-04-27 06:52 | 45.66520 | 9.71910 | 775 ft | 9 kts | 0° |
| 2026-04-27 06:52 | 45.66568 | 9.71865 | 776 ft | 9 kts | 292° |
| 2026-04-27 06:52 | 45.66584 | 9.71780 | 777 ft | 10 kts | 285° |
| 2026-04-27 06:52 | 45.66641 | 9.71469 | 780 ft | 65 kts | 285° |
| 2026-04-27 06:53 | 45.66817 | 9.70528 | 786 ft | 128 kts | 285° |
| 2026-04-27 06:53 | 45.67082 | 9.69098 | 950 ft | 163 kts | 284° |
| 2026-04-27 06:53 | 45.67324 | 9.67523 | 1549 ft | 171 kts | 281° |
| 2026-04-27 06:53 | 45.67338 | 9.65766 | 2073 ft | 182 kts | 255° |
| 2026-04-27 06:54 | 45.66997 | 9.64008 | 2731 ft | 191 kts | 258° |
| 2026-04-27 06:54 | 45.66835 | 9.61971 | 2998 ft | 219 kts | 265° |
| 2026-04-27 06:54 | 45.66740 | 9.59691 | 3265 ft | 239 kts | 266° |
| 2026-04-27 06:54 | 45.66657 | 9.57269 | 3695 ft | 248 kts | 266° |
| 2026-04-27 06:55 | 45.66582 | 9.54797 | 4296 ft | 248 kts | 267° |
| 2026-04-27 06:55 | 45.66512 | 9.52349 | 4996 ft | 247 kts | 267° |
| 2026-04-27 06:55 | 45.66442 | 9.49891 | 5544 ft | 249 kts | 267° |
| 2026-04-27 06:55 | 45.66374 | 9.47441 | 6089 ft | 251 kts | 267° |
| 2026-04-27 06:56 | 45.66305 | 9.44949 | 6642 ft | 252 kts | 267° |
| 2026-04-27 06:56 | 45.66234 | 9.42439 | 7155 ft | 253 kts | 267° |
| 2026-04-27 06:56 | 45.66162 | 9.39918 | 7668 ft | 255 kts | 268° |
| 2026-04-27 06:56 | 45.66090 | 9.37385 | 8150 ft | 255 kts | 268° |
| 2026-04-27 06:57 | 45.65996 | 9.34830 | 8661 ft | 259 kts | 267° |
| 2026-04-27 06:57 | 45.65888 | 9.32254 | 9277 ft | 261 kts | 267° |
| 2026-04-27 06:57 | 45.65777 | 9.29655 | 10012 ft | 263 kts | 267° |
| 2026-04-27 06:57 | 45.65666 | 9.27051 | 10736 ft | 264 kts | 267° |
| 2026-04-27 06:58 | 45.65555 | 9.24410 | 11450 ft | 267 kts | 267° |
| 2026-04-27 06:58 | 45.65331 | 9.19099 | 12866 ft | 272 kts | 268° |
| 2026-04-27 06:58 | 45.65215 | 9.16383 | 13610 ft | 275 kts | 268° |
| 2026-04-27 06:59 | 45.65097 | 9.13637 | 14308 ft | 278 kts | 268° |
| 2026-04-27 06:59 | 45.64978 | 9.10863 | 15005 ft | 281 kts | 268° |
| 2026-04-27 06:59 | 45.64856 | 9.08067 | 15705 ft | 283 kts | 268° |
| 2026-04-27 06:59 | 45.64733 | 9.05242 | 16413 ft | 286 kts | 269° |
| 2026-04-27 07:00 | 45.64776 | 9.02405 | 17077 ft | 287 kts | 286° |
| 2026-04-27 07:00 | 45.65557 | 8.99775 | 17416 ft | 301 kts | 301° |
| 2026-04-27 07:00 | 45.66694 | 8.97137 | 17586 ft | 322 kts | 303° |
| 2026-04-27 07:00 | 45.67952 | 8.94369 | 17754 ft | 343 kts | 304° |
| 2026-04-27 07:01 | 45.69294 | 8.91431 | 17910 ft | 362 kts | 304° |
| 2026-04-27 07:01 | 45.70699 | 8.88325 | 18022 ft | 381 kts | 303° |
| 2026-04-27 07:01 | 45.72161 | 8.85061 | 18166 ft | 398 kts | 303° |
| 2026-04-27 07:01 | 45.73672 | 8.81657 | 18418 ft | 410 kts | 303° |
| 2026-04-27 07:02 | 45.75204 | 8.78186 | 18870 ft | 414 kts | 303° |
| 2026-04-27 07:02 | 45.76721 | 8.74736 | 19428 ft | 416 kts | 303° |
| 2026-04-27 07:02 | 45.78265 | 8.71221 | 19972 ft | 418 kts | 303° |
| 2026-04-27 07:02 | 45.79814 | 8.67688 | 20473 ft | 421 kts | 303° |
| 2026-04-27 07:03 | 45.81379 | 8.64121 | 20941 ft | 424 kts | 303° |
| 2026-04-27 07:03 | 45.82953 | 8.60528 | 21415 ft | 427 kts | 303° |
| 2026-04-27 07:03 | 45.84533 | 8.56912 | 21886 ft | 430 kts | 303° |
| 2026-04-27 07:03 | 45.86118 | 8.53266 | 22362 ft | 432 kts | 303° |
| 2026-04-27 07:04 | 45.87711 | 8.49596 | 22787 ft | 435 kts | 303° |
| 2026-04-27 07:04 | 45.89294 | 8.45942 | 23194 ft | 438 kts | 303° |
| 2026-04-27 07:04 | 45.90911 | 8.42219 | 23608 ft | 441 kts | 304° |
| 2026-04-27 07:04 | 45.92895 | 8.38876 | 23932 ft | 442 kts | 321° |
| 2026-04-27 07:05 | 45.95484 | 8.36503 | 24343 ft | 442 kts | 334° |
| 2026-04-27 07:05 | 45.98376 | 8.34996 | 24739 ft | 443 kts | 343° |
| 2026-04-27 07:05 | 46.01349 | 8.33763 | 25072 ft | 446 kts | 343° |
| 2026-04-27 07:05 | 46.04360 | 8.32570 | 25290 ft | 451 kts | 344° |
| 2026-04-27 07:06 | 46.07394 | 8.31375 | 25622 ft | 453 kts | 344° |
| 2026-04-27 07:06 | 46.10392 | 8.30180 | 26023 ft | 453 kts | 343° |
| 2026-04-27 07:06 | 46.13430 | 8.28948 | 26381 ft | 454 kts | 343° |
| 2026-04-27 07:06 | 46.16482 | 8.27693 | 26668 ft | 457 kts | 343° |
| 2026-04-27 07:07 | 46.19540 | 8.26423 | 27053 ft | 458 kts | 343° |
| 2026-04-27 07:07 | 46.22591 | 8.25148 | 27514 ft | 456 kts | 343° |
| 2026-04-27 07:07 | 46.25631 | 8.23873 | 28005 ft | 453 kts | 343° |
| 2026-04-27 07:07 | 46.28644 | 8.22607 | 28542 ft | 450 kts | 342° |
| 2026-04-27 07:08 | 46.31646 | 8.21344 | 28995 ft | 449 kts | 342° |
| 2026-04-27 07:08 | 46.34601 | 8.20099 | 29455 ft | 447 kts | 342° |
| 2026-04-27 07:08 | 46.37586 | 8.18841 | 29949 ft | 446 kts | 342° |
| 2026-04-27 07:08 | 46.40554 | 8.17589 | 30424 ft | 444 kts | 342° |
| 2026-04-27 07:09 | 46.43516 | 8.16338 | 30836 ft | 442 kts | 342° |
| 2026-04-27 07:09 | 46.46462 | 8.15093 | 31193 ft | 441 kts | 342° |
| 2026-04-27 07:09 | 46.49410 | 8.13846 | 31531 ft | 441 kts | 342° |
| 2026-04-27 07:09 | 46.52354 | 8.12598 | 31885 ft | 440 kts | 342° |
| 2026-04-27 07:10 | 46.55289 | 8.11353 | 32240 ft | 439 kts | 342° |
| 2026-04-27 07:10 | 46.58219 | 8.10109 | 32621 ft | 438 kts | 343° |
| 2026-04-27 07:10 | 46.61102 | 8.08884 | 32959 ft | 437 kts | 342° |
| 2026-04-27 07:10 | 46.64020 | 8.07642 | 33296 ft | 437 kts | 342° |
| 2026-04-27 07:11 | 46.66935 | 8.06401 | 33646 ft | 436 kts | 343° |
| 2026-04-27 07:11 | 46.69838 | 8.05162 | 34027 ft | 434 kts | 343° |
| 2026-04-27 07:11 | 46.72736 | 8.03925 | 34375 ft | 433 kts | 343° |
| 2026-04-27 07:11 | 46.75625 | 8.02690 | 34662 ft | 432 kts | 343° |
| 2026-04-27 07:12 | 46.78508 | 8.01456 | 34897 ft | 432 kts | 342° |
| 2026-04-27 07:12 | 46.81394 | 8.00219 | 35161 ft | 432 kts | 342° |
| 2026-04-27 07:12 | 46.84272 | 7.98986 | 35456 ft | 431 kts | 342° |
| 2026-04-27 07:12 | 46.87143 | 7.97753 | 35724 ft | 430 kts | 342° |
| 2026-04-27 07:13 | 46.89977 | 7.96535 | 35968 ft | 430 kts | 342° |
| 2026-04-27 07:13 | 46.92842 | 7.95302 | 36218 ft | 430 kts | 342° |
| 2026-04-27 07:13 | 46.95731 | 7.94057 | 36196 ft | 434 kts | 342° |
| 2026-04-27 07:14 | 47.01522 | 7.91557 | 36201 ft | 433 kts | 342° |
| 2026-04-27 07:14 | 47.07254 | 7.89079 | 36207 ft | 427 kts | 342° |
| 2026-04-27 07:15 | 47.12901 | 7.86632 | 36209 ft | 426 kts | 342° |
| 2026-04-27 07:15 | 47.18576 | 7.84166 | 36198 ft | 425 kts | 342° |
| 2026-04-27 07:16 | 47.24246 | 7.81697 | 36192 ft | 425 kts | 342° |
| 2026-04-27 07:16 | 47.29918 | 7.79222 | 36197 ft | 425 kts | 342° |
| 2026-04-27 07:17 | 47.35558 | 7.76755 | 36206 ft | 426 kts | 342° |
| 2026-04-27 07:17 | 47.41252 | 7.74259 | 36204 ft | 427 kts | 342° |
| 2026-04-27 07:18 | 47.46959 | 7.71752 | 36212 ft | 428 kts | 342° |
| 2026-04-27 07:18 | 47.52676 | 7.69235 | 36210 ft | 429 kts | 342° |
| 2026-04-27 07:19 | 47.58361 | 7.66726 | 36219 ft | 430 kts | 342° |
| 2026-04-27 07:19 | 47.64097 | 7.64188 | 36207 ft | 430 kts | 342° |
| 2026-04-27 07:20 | 47.69831 | 7.61646 | 36209 ft | 430 kts | 342° |
| 2026-04-27 07:20 | 47.75564 | 7.59099 | 36202 ft | 430 kts | 341° |
| 2026-04-27 07:21 | 47.81254 | 7.56565 | 36206 ft | 430 kts | 341° |
| 2026-04-27 07:21 | 47.86978 | 7.54010 | 36217 ft | 429 kts | 341° |
| 2026-04-27 07:22 | 47.92703 | 7.51448 | 36205 ft | 429 kts | 341° |
| 2026-04-27 07:22 | 47.98422 | 7.48883 | 36247 ft | 429 kts | 341° |
| 2026-04-27 07:23 | 48.04143 | 7.46311 | 36236 ft | 430 kts | 341° |
| 2026-04-27 07:23 | 48.09829 | 7.43750 | 36239 ft | 430 kts | 341° |
| 2026-04-27 07:24 | 48.15551 | 7.41166 | 36240 ft | 430 kts | 341° |
| 2026-04-27 07:24 | 48.21275 | 7.38574 | 36247 ft | 430 kts | 341° |
| 2026-04-27 07:25 | 48.27003 | 7.35975 | 36234 ft | 430 kts | 341° |
| 2026-04-27 07:25 | 48.32696 | 7.33386 | 36227 ft | 430 kts | 341° |
| 2026-04-27 07:26 | 48.38428 | 7.30773 | 36215 ft | 431 kts | 341° |
| 2026-04-27 07:26 | 48.44167 | 7.28151 | 36239 ft | 431 kts | 340° |
| 2026-04-27 07:27 | 48.49919 | 7.25517 | 36216 ft | 433 kts | 340° |
| 2026-04-27 07:27 | 48.55642 | 7.22889 | 36219 ft | 433 kts | 340° |
| 2026-04-27 07:28 | 48.61408 | 7.20236 | 36220 ft | 433 kts | 340° |
| 2026-04-27 07:28 | 48.67176 | 7.17576 | 36218 ft | 433 kts | 340° |
| 2026-04-27 07:29 | 48.72943 | 7.14909 | 36222 ft | 433 kts | 340° |
| 2026-04-27 07:29 | 48.78709 | 7.12237 | 36217 ft | 433 kts | 340° |
| 2026-04-27 07:30 | 48.84435 | 7.09576 | 36222 ft | 433 kts | 340° |
| 2026-04-27 07:30 | 48.90195 | 7.06894 | 36233 ft | 433 kts | 340° |
| 2026-04-27 07:31 | 48.95958 | 7.04203 | 36226 ft | 433 kts | 340° |
| 2026-04-27 07:31 | 49.01678 | 7.01526 | 36232 ft | 433 kts | 340° |
| 2026-04-27 07:32 | 49.07436 | 6.98825 | 36237 ft | 433 kts | 340° |
| 2026-04-27 07:32 | 49.13204 | 6.96113 | 36244 ft | 434 kts | 340° |
| 2026-04-27 07:33 | 49.18973 | 6.93393 | 36241 ft | 434 kts | 340° |
| 2026-04-27 07:33 | 49.24711 | 6.90681 | 36234 ft | 435 kts | 340° |
| 2026-04-27 07:34 | 49.30489 | 6.87944 | 36231 ft | 435 kts | 340° |
| 2026-04-27 07:34 | 49.36267 | 6.85201 | 36233 ft | 435 kts | 339° |
| 2026-04-27 07:35 | 49.42046 | 6.82449 | 36221 ft | 435 kts | 339° |
| 2026-04-27 07:35 | 49.47786 | 6.79710 | 36227 ft | 435 kts | 339° |
| 2026-04-27 07:36 | 49.53568 | 6.76944 | 36221 ft | 435 kts | 339° |
| 2026-04-27 07:36 | 49.59346 | 6.74173 | 36227 ft | 435 kts | 339° |
| 2026-04-27 07:37 | 49.65131 | 6.71392 | 36222 ft | 435 kts | 339° |
| 2026-04-27 07:37 | 49.70917 | 6.68603 | 36228 ft | 436 kts | 339° |
| 2026-04-27 07:38 | 49.76676 | 6.65820 | 36221 ft | 437 kts | 339° |
| 2026-04-27 07:38 | 49.82482 | 6.63007 | 36217 ft | 438 kts | 339° |
| 2026-04-27 07:39 | 49.88297 | 6.60184 | 36217 ft | 438 kts | 339° |
| 2026-04-27 07:39 | 49.94108 | 6.57354 | 36238 ft | 438 kts | 339° |
| 2026-04-27 07:40 | 49.99883 | 6.54536 | 36222 ft | 438 kts | 339° |
| 2026-04-27 07:40 | 50.05697 | 6.51690 | 36231 ft | 438 kts | 338° |
| 2026-04-27 07:41 | 50.11506 | 6.48841 | 36221 ft | 438 kts | 338° |
| 2026-04-27 07:41 | 50.17113 | 6.45352 | 36218 ft | 429 kts | 322° |
| 2026-04-27 07:42 | 50.21303 | 6.39018 | 36227 ft | 421 kts | 301° |
| 2026-04-27 07:42 | 50.24350 | 6.31229 | 36241 ft | 421 kts | 299° |
| 2026-04-27 07:43 | 50.27375 | 6.23382 | 36259 ft | 422 kts | 299° |
| 2026-04-27 07:43 | 50.30427 | 6.15525 | 36247 ft | 423 kts | 299° |
| 2026-04-27 07:44 | 50.33494 | 6.07662 | 36256 ft | 423 kts | 299° |
| 2026-04-27 07:44 | 50.36543 | 5.99839 | 36256 ft | 424 kts | 299° |
| 2026-04-27 07:45 | 50.39609 | 5.91950 | 36266 ft | 424 kts | 299° |
| 2026-04-27 07:45 | 50.42671 | 5.84046 | 36264 ft | 424 kts | 299° |
| 2026-04-27 07:46 | 50.45709 | 5.76178 | 36270 ft | 424 kts | 299° |
| 2026-04-27 07:46 | 50.48760 | 5.68252 | 36273 ft | 425 kts | 298° |
| 2026-04-27 07:47 | 50.51809 | 5.60309 | 36294 ft | 424 kts | 298° |
| 2026-04-27 07:47 | 50.54852 | 5.52356 | 36287 ft | 425 kts | 298° |
| 2026-04-27 07:48 | 50.57892 | 5.44388 | 36286 ft | 424 kts | 298° |
| 2026-04-27 07:48 | 50.60900 | 5.36477 | 36285 ft | 424 kts | 298° |
| 2026-04-27 07:49 | 50.63924 | 5.28502 | 36288 ft | 424 kts | 298° |
| 2026-04-27 07:49 | 50.66940 | 5.20521 | 36294 ft | 424 kts | 298° |
| 2026-04-27 07:50 | 50.69951 | 5.12530 | 36295 ft | 424 kts | 298° |
| 2026-04-27 07:50 | 50.72935 | 5.04586 | 36296 ft | 424 kts | 298° |
| 2026-04-27 07:51 | 50.75934 | 4.96578 | 36287 ft | 424 kts | 298° |
| 2026-04-27 07:51 | 50.78929 | 4.88553 | 36290 ft | 424 kts | 298° |
| 2026-04-27 07:52 | 50.81916 | 4.80527 | 36294 ft | 424 kts | 297° |
| 2026-04-27 07:52 | 50.84895 | 4.72498 | 36297 ft | 423 kts | 297° |
| 2026-04-27 07:53 | 50.87852 | 4.64501 | 36294 ft | 424 kts | 297° |
| 2026-04-27 07:53 | 50.90823 | 4.56443 | 36294 ft | 424 kts | 297° |
| 2026-04-27 07:54 | 50.93789 | 4.48373 | 36293 ft | 424 kts | 297° |
| 2026-04-27 07:54 | 50.96751 | 4.40286 | 36293 ft | 424 kts | 297° |
| 2026-04-27 07:55 | 50.99690 | 4.32240 | 36298 ft | 424 kts | 297° |
| 2026-04-27 07:55 | 51.02643 | 4.24129 | 36299 ft | 424 kts | 297° |
| 2026-04-27 07:56 | 51.05587 | 4.16014 | 36313 ft | 424 kts | 297° |
| 2026-04-27 07:56 | 51.08529 | 4.07882 | 36298 ft | 424 kts | 297° |
| 2026-04-27 07:57 | 51.11441 | 3.99805 | 36296 ft | 424 kts | 297° |
| 2026-04-27 07:57 | 51.14370 | 3.91655 | 36291 ft | 424 kts | 297° |
| 2026-04-27 07:58 | 51.17292 | 3.83501 | 36293 ft | 424 kts | 297° |
| 2026-04-27 07:58 | 51.19716 | 3.76713 | 36282 ft | 424 kts | 297° |
| 2026-04-27 07:59 | 51.22635 | 3.68523 | 36292 ft | 425 kts | 297° |
| 2026-04-27 07:59 | 51.27111 | 3.56281 | 36294 ft | 427 kts | 298° |
| 2026-04-27 08:00 | 51.30149 | 3.48126 | 36305 ft | 427 kts | 298° |
| 2026-04-27 08:00 | 51.33149 | 3.39998 | 36300 ft | 428 kts | 298° |
| 2026-04-27 08:01 | 51.35856 | 3.31566 | 36298 ft | 425 kts | 289° |
| 2026-04-27 08:01 | 51.37885 | 3.22689 | 36296 ft | 425 kts | 288° |
| 2026-04-27 08:02 | 51.39958 | 3.13816 | 36303 ft | 425 kts | 289° |
| 2026-04-27 08:02 | 51.42041 | 3.05011 | 36304 ft | 426 kts | 289° |
| 2026-04-27 08:03 | 51.44122 | 2.96136 | 36304 ft | 426 kts | 289° |
| 2026-04-27 08:03 | 51.46197 | 2.87248 | 36201 ft | 427 kts | 289° |
| 2026-04-27 08:04 | 51.47242 | 2.82755 | 35626 ft | 429 kts | 288° |
| 2026-04-27 08:04 | 51.48279 | 2.78294 | 34991 ft | 426 kts | 288° |
| 2026-04-27 08:04 | 51.49311 | 2.73840 | 34327 ft | 426 kts | 288° |
| 2026-04-27 08:04 | 51.50327 | 2.69448 | 33554 ft | 425 kts | 288° |
| 2026-04-27 08:05 | 51.51354 | 2.65001 | 32821 ft | 424 kts | 288° |
| 2026-04-27 08:05 | 51.52376 | 2.60562 | 32093 ft | 424 kts | 288° |
| 2026-04-27 08:05 | 51.53397 | 2.56125 | 31336 ft | 424 kts | 287° |
| 2026-04-27 08:05 | 51.54418 | 2.51676 | 30567 ft | 425 kts | 287° |
| 2026-04-27 08:06 | 51.55437 | 2.47218 | 29712 ft | 425 kts | 287° |
| 2026-04-27 08:06 | 51.56448 | 2.42763 | 28839 ft | 424 kts | 287° |
| 2026-04-27 08:06 | 51.57458 | 2.38305 | 27952 ft | 424 kts | 287° |
| 2026-04-27 08:06 | 51.58455 | 2.33901 | 27050 ft | 425 kts | 288° |
| 2026-04-27 08:07 | 51.59468 | 2.29453 | 26169 ft | 426 kts | 288° |
| 2026-04-27 08:07 | 51.60488 | 2.24983 | 25527 ft | 421 kts | 288° |
| 2026-04-27 08:07 | 51.61491 | 2.20573 | 24850 ft | 418 kts | 288° |
| 2026-04-27 08:07 | 51.62534 | 2.16215 | 24170 ft | 418 kts | 294° |
| 2026-04-27 08:08 | 51.64111 | 2.12291 | 23435 ft | 418 kts | 308° |
| 2026-04-27 08:08 | 51.66167 | 2.08974 | 22718 ft | 422 kts | 317° |
| 2026-04-27 08:08 | 51.68653 | 2.06346 | 22084 ft | 433 kts | 329° |
| 2026-04-27 08:08 | 51.71305 | 2.04164 | 21615 ft | 435 kts | 330° |
| 2026-04-27 08:09 | 51.73997 | 2.01963 | 21114 ft | 432 kts | 330° |
| 2026-04-27 08:09 | 51.76653 | 1.99761 | 20631 ft | 427 kts | 329° |
| 2026-04-27 08:09 | 51.79279 | 1.97547 | 20190 ft | 424 kts | 329° |
| 2026-04-27 08:09 | 51.81880 | 1.95329 | 19727 ft | 421 kts | 328° |
| 2026-04-27 08:10 | 51.84461 | 1.93118 | 19272 ft | 419 kts | 329° |
| 2026-04-27 08:10 | 51.87029 | 1.90915 | 18826 ft | 417 kts | 328° |
| 2026-04-27 08:10 | 51.89403 | 1.88312 | 18297 ft | 410 kts | 313° |
| 2026-04-27 08:10 | 51.91126 | 1.84795 | 17941 ft | 401 kts | 299° |
| 2026-04-27 08:11 | 51.92463 | 1.80868 | 17581 ft | 396 kts | 296° |
| 2026-04-27 08:11 | 51.93732 | 1.76922 | 17221 ft | 394 kts | 296° |
| 2026-04-27 08:11 | 51.94986 | 1.72985 | 16884 ft | 393 kts | 296° |
| 2026-04-27 08:11 | 51.96244 | 1.69063 | 16540 ft | 392 kts | 296° |
| 2026-04-27 08:12 | 51.97511 | 1.65149 | 16199 ft | 392 kts | 296° |
| 2026-04-27 08:12 | 51.98781 | 1.61246 | 15862 ft | 392 kts | 297° |
| 2026-04-27 08:12 | 52.00057 | 1.57339 | 15521 ft | 391 kts | 297° |
| 2026-04-27 08:12 | 52.01333 | 1.53437 | 15183 ft | 391 kts | 297° |
| 2026-04-27 08:13 | 52.02588 | 1.49596 | 14848 ft | 390 kts | 297° |
| 2026-04-27 08:13 | 52.03855 | 1.45715 | 14496 ft | 385 kts | 297° |
| 2026-04-27 08:13 | 52.05091 | 1.41924 | 14158 ft | 374 kts | 297° |
| 2026-04-27 08:13 | 52.06289 | 1.38240 | 13799 ft | 363 kts | 297° |
| 2026-04-27 08:14 | 52.07453 | 1.34657 | 13474 ft | 354 kts | 297° |
| 2026-04-27 08:14 | 52.08585 | 1.31167 | 13147 ft | 345 kts | 297° |
| 2026-04-27 08:14 | 52.09687 | 1.27766 | 12845 ft | 336 kts | 297° |
| 2026-04-27 08:14 | 52.10760 | 1.24436 | 12552 ft | 328 kts | 296° |
| 2026-04-27 08:15 | 52.11407 | 1.20943 | 12268 ft | 321 kts | 275° |
| 2026-04-27 08:15 | 52.11316 | 1.17380 | 12062 ft | 313 kts | 260° |
| 2026-04-27 08:15 | 52.10816 | 1.13982 | 11849 ft | 306 kts | 256° |
| 2026-04-27 08:15 | 52.10257 | 1.10733 | 11635 ft | 299 kts | 255° |
| 2026-04-27 08:16 | 52.09691 | 1.07512 | 11422 ft | 293 kts | 255° |
| 2026-04-27 08:16 | 52.09142 | 1.04360 | 11218 ft | 287 kts | 255° |
| 2026-04-27 08:16 | 52.08609 | 1.01269 | 11014 ft | 281 kts | 256° |
| 2026-04-27 08:16 | 52.08089 | 0.98220 | 10819 ft | 278 kts | 256° |
| 2026-04-27 08:17 | 52.07577 | 0.95195 | 10628 ft | 277 kts | 256° |
| 2026-04-27 08:17 | 52.07070 | 0.92192 | 10434 ft | 273 kts | 256° |
| 2026-04-27 08:17 | 52.06572 | 0.89243 | 10242 ft | 268 kts | 256° |
| 2026-04-27 08:17 | 52.06089 | 0.86379 | 10037 ft | 265 kts | 256° |
| 2026-04-27 08:18 | 52.05603 | 0.83493 | 9850 ft | 265 kts | 256° |
| 2026-04-27 08:18 | 52.05114 | 0.80593 | 9658 ft | 267 kts | 256° |
| 2026-04-27 08:18 | 52.04621 | 0.77679 | 9465 ft | 268 kts | 256° |
| 2026-04-27 08:18 | 52.04128 | 0.74763 | 9269 ft | 268 kts | 256° |
| 2026-04-27 08:19 | 52.03633 | 0.71838 | 9081 ft | 268 kts | 256° |
| 2026-04-27 08:19 | 52.03137 | 0.68916 | 8880 ft | 267 kts | 256° |
| 2026-04-27 08:19 | 52.02646 | 0.66032 | 8682 ft | 263 kts | 256° |
| 2026-04-27 08:19 | 52.02169 | 0.63235 | 8507 ft | 258 kts | 256° |
| 2026-04-27 08:20 | 52.01694 | 0.60449 | 8312 ft | 254 kts | 256° |
| 2026-04-27 08:20 | 52.01393 | 0.57599 | 7910 ft | 258 kts | 266° |
| 2026-04-27 08:20 | 52.01268 | 0.54663 | 7495 ft | 264 kts | 267° |
| 2026-04-27 08:20 | 52.01139 | 0.51659 | 7072 ft | 270 kts | 266° |
| 2026-04-27 08:21 | 52.00991 | 0.48587 | 6588 ft | 276 kts | 266° |
| 2026-04-27 08:21 | 52.00840 | 0.45430 | 6125 ft | 280 kts | 267° |
| 2026-04-27 08:21 | 52.00718 | 0.42327 | 6030 ft | 271 kts | 267° |
| 2026-04-27 08:21 | 52.00604 | 0.39332 | 5998 ft | 260 kts | 267° |
| 2026-04-27 08:22 | 52.00491 | 0.36469 | 5992 ft | 249 kts | 267° |
| 2026-04-27 08:22 | 52.00382 | 0.33766 | 5992 ft | 240 kts | 267° |
| 2026-04-27 08:22 | 52.00272 | 0.31070 | 5994 ft | 239 kts | 267° |
| 2026-04-27 08:22 | 52.00122 | 0.28393 | 5996 ft | 239 kts | 257° |
| 2026-04-27 08:23 | 51.99291 | 0.26090 | 6003 ft | 240 kts | 225° |
| 2026-04-27 08:23 | 51.98073 | 0.24237 | 6012 ft | 241 kts | 223° |
| 2026-04-27 08:23 | 51.96841 | 0.22377 | 6002 ft | 243 kts | 223° |
| 2026-04-27 08:23 | 51.95567 | 0.20460 | 5624 ft | 255 kts | 223° |
| 2026-04-27 08:24 | 51.94263 | 0.18494 | 5282 ft | 257 kts | 223° |
| 2026-04-27 08:24 | 51.92944 | 0.16504 | 4917 ft | 261 kts | 223° |
| 2026-04-27 08:24 | 51.91625 | 0.14514 | 4547 ft | 264 kts | 223° |
| 2026-04-27 08:24 | 51.90273 | 0.12474 | 4166 ft | 267 kts | 223° |
| 2026-04-27 08:25 | 51.88907 | 0.10408 | 3791 ft | 270 kts | 223° |